NFC9352 BIKF-TXKF
Flight info
| Callsign | NFC9352 |
|---|---|
| Flight time | 5h 33m |
| Altitude | 30000 |
| Route | M080F300 DELES2C DELES DCT DOPOD DCT 62N030W 57N040W 51N050W DCT ALLRY DCT LOMPI/M080F340 DCT SOORY DCT RNGRS MOMOM1 |
| Aircraft | A306/H-SDE3FGHIRWY/LB1 |
Departure
| Time | 2026-04-29 07:10 |
|---|---|
| Airport | Keflavik International Airport (BIKF) |
Arrival
| Time | 2026-04-29 12:44 |
|---|---|
| Airport | L.F. Wade International Airport (TXKF) |
| Time | Latitude | Longitude | Altitude | Speed | Heading |
|---|---|---|---|---|---|
| 2026-04-29 06:28 | 63.99333 | -22.62907 | 148 ft | 0 kts | 270° |
| 2026-04-29 06:57 | 63.99333 | -22.62896 | 148 ft | 2 kts | 270° |
| 2026-04-29 06:57 | 63.99333 | -22.62852 | 148 ft | 3 kts | 270° |
| 2026-04-29 06:58 | 63.99333 | -22.62813 | 148 ft | 2 kts | 269° |
| 2026-04-29 06:58 | 63.99335 | -22.62773 | 148 ft | 3 kts | 234° |
| 2026-04-29 06:58 | 63.99348 | -22.62749 | 148 ft | 3 kts | 191° |
| 2026-04-29 06:58 | 63.99365 | -22.62744 | 148 ft | 1 kts | 180° |
| 2026-04-29 06:59 | 63.99371 | -22.62744 | 148 ft | 0 kts | 180° |
| 2026-04-29 07:03 | 63.99334 | -22.62749 | 148 ft | 6 kts | 198° |
| 2026-04-29 07:03 | 63.99296 | -22.62746 | 148 ft | 7 kts | 167° |
| 2026-04-29 07:04 | 63.99233 | -22.62686 | 148 ft | 10 kts | 153° |
| 2026-04-29 07:04 | 63.99183 | -22.62608 | 148 ft | 11 kts | 117° |
| 2026-04-29 07:04 | 63.99186 | -22.62412 | 148 ft | 16 kts | 79° |
| 2026-04-29 07:04 | 63.99193 | -22.62168 | 148 ft | 13 kts | 101° |
| 2026-04-29 07:05 | 63.99183 | -22.62060 | 148 ft | 0 kts | 98° |
| 2026-04-29 07:05 | 63.99182 | -22.62056 | 148 ft | 2 kts | 98° |
| 2026-04-29 07:05 | 63.99181 | -22.61962 | 148 ft | 10 kts | 88° |
| 2026-04-29 07:06 | 63.99202 | -22.61759 | 150 ft | 16 kts | 66° |
| 2026-04-29 07:06 | 63.99282 | -22.61544 | 151 ft | 6 kts | 34° |
| 2026-04-29 07:06 | 63.99286 | -22.61530 | 151 ft | 4 kts | 57° |
| 2026-04-29 07:06 | 63.99272 | -22.61430 | 154 ft | 5 kts | 136° |
| 2026-04-29 07:07 | 63.99216 | -22.61401 | 157 ft | 8 kts | 169° |
| 2026-04-29 07:07 | 63.99190 | -22.61358 | 159 ft | 6 kts | 130° |
| 2026-04-29 07:07 | 63.99176 | -22.61210 | 163 ft | 15 kts | 91° |
| 2026-04-29 07:07 | 63.99174 | -22.60992 | 168 ft | 8 kts | 89° |
| 2026-04-29 07:08 | 63.99171 | -22.60915 | 169 ft | 2 kts | 91° |
| 2026-04-29 07:08 | 63.99172 | -22.60856 | 171 ft | 5 kts | 86° |
| 2026-04-29 07:08 | 63.99175 | -22.60761 | 174 ft | 8 kts | 87° |
| 2026-04-29 07:08 | 63.99158 | -22.60591 | 181 ft | 11 kts | 132° |
| 2026-04-29 07:09 | 63.99117 | -22.60552 | 182 ft | 4 kts | 164° |
| 2026-04-29 07:09 | 63.99006 | -22.60537 | 181 ft | 43 kts | 180° |
| 2026-04-29 07:09 | 63.98513 | -22.60544 | 183 ft | 96 kts | 178° |
| 2026-04-29 07:09 | 63.97696 | -22.60542 | 178 ft | 139 kts | 179° |
| 2026-04-29 07:10 | 63.96598 | -22.60524 | 452 ft | 171 kts | 183° |
| 2026-04-29 07:10 | 63.95367 | -22.60537 | 1147 ft | 183 kts | 185° |
| 2026-04-29 07:10 | 63.94142 | -22.60626 | 1438 ft | 165 kts | 187° |
| 2026-04-29 07:10 | 63.93051 | -22.60709 | 1425 ft | 152 kts | 187° |
| 2026-04-29 07:11 | 63.91978 | -22.60821 | 1605 ft | 153 kts | 188° |
| 2026-04-29 07:11 | 63.90949 | -22.61057 | 2250 ft | 148 kts | 193° |
| 2026-04-29 07:11 | 63.89927 | -22.61626 | 2607 ft | 151 kts | 203° |
| 2026-04-29 07:11 | 63.89051 | -22.62954 | 2675 ft | 155 kts | 227° |
| 2026-04-29 07:12 | 63.88427 | -22.65236 | 3196 ft | 184 kts | 238° |
| 2026-04-29 07:12 | 63.87846 | -22.68008 | 3700 ft | 208 kts | 241° |
| 2026-04-29 07:12 | 63.87227 | -22.71167 | 3998 ft | 227 kts | 242° |
| 2026-04-29 07:12 | 63.86582 | -22.74522 | 4548 ft | 235 kts | 242° |
| 2026-04-29 07:13 | 63.85925 | -22.77943 | 5226 ft | 237 kts | 242° |
| 2026-04-29 07:13 | 63.85264 | -22.81369 | 5961 ft | 237 kts | 242° |
| 2026-04-29 07:13 | 63.84600 | -22.84796 | 6670 ft | 238 kts | 242° |
| 2026-04-29 07:13 | 63.83931 | -22.88238 | 7387 ft | 238 kts | 242° |
| 2026-04-29 07:14 | 63.83271 | -22.91622 | 8117 ft | 238 kts | 242° |
| 2026-04-29 07:14 | 63.82600 | -22.95051 | 8855 ft | 238 kts | 241° |
| 2026-04-29 07:14 | 63.81927 | -22.98486 | 9585 ft | 239 kts | 241° |
| 2026-04-29 07:14 | 63.81248 | -23.01942 | 10175 ft | 243 kts | 241° |
| 2026-04-29 07:15 | 63.80537 | -23.05535 | 10441 ft | 257 kts | 241° |
| 2026-04-29 07:15 | 63.79785 | -23.09334 | 10694 ft | 271 kts | 241° |
| 2026-04-29 07:15 | 63.78996 | -23.13320 | 10946 ft | 284 kts | 241° |
| 2026-04-29 07:15 | 63.78168 | -23.17500 | 11172 ft | 296 kts | 241° |
| 2026-04-29 07:16 | 63.77320 | -23.21779 | 11407 ft | 308 kts | 242° |
| 2026-04-29 07:16 | 63.76423 | -23.26297 | 11646 ft | 318 kts | 242° |
| 2026-04-29 07:16 | 63.75513 | -23.30879 | 12075 ft | 322 kts | 242° |
| 2026-04-29 07:16 | 63.74593 | -23.35503 | 12565 ft | 324 kts | 241° |
| 2026-04-29 07:17 | 63.73664 | -23.40160 | 13084 ft | 326 kts | 241° |
| 2026-04-29 07:17 | 63.72727 | -23.44842 | 13600 ft | 327 kts | 241° |
| 2026-04-29 07:17 | 63.71784 | -23.49536 | 14054 ft | 329 kts | 241° |
| 2026-04-29 07:17 | 63.70833 | -23.54259 | 14466 ft | 331 kts | 241° |
| 2026-04-29 07:18 | 63.69874 | -23.59013 | 14951 ft | 333 kts | 241° |
| 2026-04-29 07:18 | 63.68922 | -23.63718 | 15379 ft | 335 kts | 240° |
| 2026-04-29 07:18 | 63.67949 | -23.68514 | 15812 ft | 337 kts | 240° |
| 2026-04-29 07:18 | 63.66970 | -23.73335 | 16279 ft | 339 kts | 240° |
| 2026-04-29 07:19 | 63.65983 | -23.78180 | 16719 ft | 341 kts | 240° |
| 2026-04-29 07:19 | 63.64992 | -23.83029 | 17170 ft | 343 kts | 240° |
| 2026-04-29 07:19 | 63.64328 | -23.86275 | 17456 ft | 344 kts | 240° |
| 2026-04-29 07:19 | 63.62981 | -23.92845 | 18032 ft | 347 kts | 240° |
| 2026-04-29 07:20 | 63.61976 | -23.97729 | 18393 ft | 348 kts | 240° |
| 2026-04-29 07:20 | 63.60954 | -24.02688 | 18743 ft | 350 kts | 240° |
| 2026-04-29 07:20 | 63.59929 | -24.07647 | 19093 ft | 351 kts | 240° |
| 2026-04-29 07:20 | 63.58896 | -24.12636 | 19440 ft | 352 kts | 240° |
| 2026-04-29 07:21 | 63.58207 | -24.15958 | 19665 ft | 353 kts | 240° |
| 2026-04-29 07:21 | 63.57166 | -24.20964 | 19999 ft | 355 kts | 239° |
| 2026-04-29 07:21 | 63.56119 | -24.25986 | 20271 ft | 356 kts | 239° |
| 2026-04-29 07:21 | 63.55060 | -24.31055 | 20530 ft | 359 kts | 239° |
| 2026-04-29 07:22 | 63.53994 | -24.36143 | 20869 ft | 360 kts | 239° |
| 2026-04-29 07:22 | 63.52938 | -24.41173 | 21184 ft | 361 kts | 239° |
| 2026-04-29 07:22 | 63.51865 | -24.46271 | 21504 ft | 362 kts | 239° |
| 2026-04-29 07:22 | 63.50787 | -24.51378 | 21835 ft | 363 kts | 239° |
| 2026-04-29 07:23 | 63.49659 | -24.56453 | 22128 ft | 363 kts | 236° |
| 2026-04-29 07:23 | 63.48336 | -24.61240 | 22439 ft | 362 kts | 232° |
| 2026-04-29 07:23 | 63.46903 | -24.65896 | 22740 ft | 362 kts | 231° |
| 2026-04-29 07:23 | 63.45425 | -24.70467 | 23036 ft | 363 kts | 230° |
| 2026-04-29 07:24 | 63.43922 | -24.75021 | 23322 ft | 364 kts | 230° |
| 2026-04-29 07:24 | 63.42425 | -24.79535 | 23556 ft | 366 kts | 230° |
| 2026-04-29 07:24 | 63.40912 | -24.84114 | 23790 ft | 367 kts | 230° |
| 2026-04-29 07:24 | 63.39398 | -24.88712 | 24008 ft | 368 kts | 230° |
| 2026-04-29 07:25 | 63.37887 | -24.93318 | 24234 ft | 369 kts | 230° |
| 2026-04-29 07:25 | 63.36368 | -24.97952 | 24466 ft | 370 kts | 230° |
| 2026-04-29 07:25 | 63.34846 | -25.02595 | 24675 ft | 371 kts | 230° |
| 2026-04-29 07:25 | 63.33322 | -25.07236 | 24886 ft | 372 kts | 230° |
| 2026-04-29 07:26 | 63.31789 | -25.11895 | 25107 ft | 373 kts | 230° |
| 2026-04-29 07:26 | 63.30249 | -25.16562 | 25279 ft | 375 kts | 230° |
| 2026-04-29 07:26 | 63.28716 | -25.21199 | 25466 ft | 376 kts | 230° |
| 2026-04-29 07:26 | 63.27162 | -25.25891 | 25656 ft | 377 kts | 230° |
| 2026-04-29 07:27 | 63.25599 | -25.30599 | 25847 ft | 378 kts | 230° |
| 2026-04-29 07:27 | 63.24027 | -25.35325 | 26014 ft | 379 kts | 230° |
| 2026-04-29 07:27 | 63.22454 | -25.40042 | 26199 ft | 380 kts | 230° |
| 2026-04-29 07:27 | 63.20874 | -25.44771 | 26362 ft | 381 kts | 230° |
| 2026-04-29 07:28 | 63.19309 | -25.49446 | 26560 ft | 382 kts | 230° |
| 2026-04-29 07:28 | 63.17719 | -25.54186 | 26721 ft | 383 kts | 230° |
| 2026-04-29 07:28 | 63.16125 | -25.58927 | 26896 ft | 384 kts | 230° |
| 2026-04-29 07:28 | 63.14519 | -25.63693 | 27089 ft | 384 kts | 230° |
| 2026-04-29 07:29 | 63.12922 | -25.68427 | 27339 ft | 383 kts | 230° |
| 2026-04-29 07:29 | 63.11342 | -25.73099 | 27613 ft | 382 kts | 230° |
| 2026-04-29 07:29 | 63.09740 | -25.77822 | 27632 ft | 387 kts | 230° |
| 2026-04-29 07:29 | 63.08124 | -25.82575 | 27789 ft | 387 kts | 230° |
| 2026-04-29 07:30 | 63.06504 | -25.87334 | 28060 ft | 386 kts | 230° |
| 2026-04-29 07:30 | 63.04913 | -25.92003 | 28297 ft | 385 kts | 230° |
| 2026-04-29 07:30 | 63.03305 | -25.96707 | 28546 ft | 384 kts | 230° |
| 2026-04-29 07:31 | 63.00085 | -26.06100 | 28984 ft | 383 kts | 230° |
| 2026-04-29 07:31 | 62.98473 | -26.10784 | 29195 ft | 383 kts | 230° |
| 2026-04-29 07:31 | 62.96862 | -26.15457 | 29416 ft | 383 kts | 229° |
| 2026-04-29 07:31 | 62.95249 | -26.20127 | 29655 ft | 382 kts | 229° |
| 2026-04-29 07:32 | 62.93663 | -26.24711 | 29806 ft | 382 kts | 229° |
| 2026-04-29 07:32 | 62.92052 | -26.29355 | 29810 ft | 380 kts | 229° |
| 2026-04-29 07:32 | 62.89105 | -26.39031 | 29823 ft | 385 kts | 237° |
| 2026-04-29 07:33 | 62.86618 | -26.49504 | 29821 ft | 388 kts | 238° |
| 2026-04-29 07:33 | 62.84223 | -26.60056 | 29829 ft | 389 kts | 239° |
| 2026-04-29 07:34 | 62.81814 | -26.70658 | 29828 ft | 388 kts | 238° |
| 2026-04-29 07:34 | 62.79386 | -26.81223 | 29829 ft | 388 kts | 238° |
| 2026-04-29 07:35 | 62.76941 | -26.91768 | 29821 ft | 388 kts | 238° |
| 2026-04-29 07:35 | 62.74501 | -27.02230 | 29821 ft | 390 kts | 238° |
| 2026-04-29 07:36 | 62.72023 | -27.12806 | 29814 ft | 391 kts | 238° |
| 2026-04-29 07:36 | 62.69553 | -27.23308 | 29814 ft | 391 kts | 238° |
| 2026-04-29 07:37 | 62.67056 | -27.33871 | 29811 ft | 391 kts | 238° |
| 2026-04-29 07:37 | 62.64558 | -27.44386 | 29812 ft | 391 kts | 238° |
| 2026-04-29 07:38 | 62.62052 | -27.54882 | 29813 ft | 391 kts | 238° |
| 2026-04-29 07:38 | 62.59551 | -27.65309 | 29808 ft | 392 kts | 238° |
| 2026-04-29 07:39 | 62.57015 | -27.75826 | 29807 ft | 393 kts | 238° |
| 2026-04-29 07:39 | 62.54481 | -27.86289 | 29804 ft | 393 kts | 238° |
| 2026-04-29 07:40 | 62.51930 | -27.96776 | 29804 ft | 393 kts | 237° |
| 2026-04-29 07:40 | 62.49384 | -28.07185 | 29804 ft | 393 kts | 237° |
| 2026-04-29 07:41 | 62.46816 | -28.17638 | 29798 ft | 393 kts | 237° |
| 2026-04-29 07:41 | 62.44252 | -28.28025 | 29804 ft | 394 kts | 237° |
| 2026-04-29 07:42 | 62.41652 | -28.38500 | 29795 ft | 396 kts | 237° |
| 2026-04-29 07:42 | 62.39058 | -28.48914 | 29796 ft | 396 kts | 237° |
| 2026-04-29 07:43 | 62.36438 | -28.59380 | 29793 ft | 396 kts | 237° |
| 2026-04-29 07:43 | 62.33827 | -28.69755 | 29788 ft | 396 kts | 237° |
| 2026-04-29 07:44 | 62.31195 | -28.80170 | 29790 ft | 396 kts | 237° |
| 2026-04-29 07:44 | 62.28546 | -28.90600 | 29784 ft | 398 kts | 237° |
| 2026-04-29 07:45 | 62.25870 | -29.01083 | 29798 ft | 401 kts | 237° |
| 2026-04-29 07:45 | 62.23194 | -29.11522 | 29792 ft | 401 kts | 237° |
| 2026-04-29 07:46 | 62.20523 | -29.21941 | 29784 ft | 396 kts | 237° |
| 2026-04-29 07:46 | 62.17847 | -29.32265 | 29786 ft | 395 kts | 237° |
| 2026-04-29 07:47 | 62.15182 | -29.42492 | 29783 ft | 395 kts | 237° |
| 2026-04-29 07:47 | 62.12494 | -29.52776 | 29783 ft | 397 kts | 237° |
| 2026-04-29 07:48 | 62.09778 | -29.63123 | 29779 ft | 400 kts | 237° |
| 2026-04-29 07:48 | 62.07064 | -29.73421 | 29779 ft | 400 kts | 237° |
| 2026-04-29 07:49 | 62.04323 | -29.83776 | 29776 ft | 400 kts | 237° |
| 2026-04-29 07:49 | 62.01576 | -29.94101 | 29776 ft | 400 kts | 237° |
| 2026-04-29 07:50 | 61.98471 | -30.03763 | 29778 ft | 397 kts | 229° |
| 2026-04-29 07:50 | 61.94955 | -30.12819 | 29761 ft | 399 kts | 228° |
| 2026-04-29 07:51 | 61.91335 | -30.21827 | 29782 ft | 401 kts | 227° |
| 2026-04-29 07:51 | 61.87725 | -30.30770 | 29801 ft | 401 kts | 227° |
| 2026-04-29 07:52 | 61.84098 | -30.39761 | 29779 ft | 401 kts | 227° |
| 2026-04-29 07:52 | 61.80473 | -30.48729 | 29776 ft | 401 kts | 227° |
| 2026-04-29 07:53 | 61.76862 | -30.57630 | 29776 ft | 401 kts | 227° |
| 2026-04-29 07:53 | 61.73216 | -30.66579 | 29797 ft | 401 kts | 227° |
| 2026-04-29 07:54 | 61.69589 | -30.75445 | 29786 ft | 401 kts | 227° |
| 2026-04-29 07:54 | 61.65935 | -30.84343 | 29791 ft | 401 kts | 227° |
| 2026-04-29 07:55 | 61.62301 | -30.93159 | 29769 ft | 401 kts | 227° |
| 2026-04-29 07:55 | 61.58634 | -31.02019 | 29770 ft | 401 kts | 227° |
| 2026-04-29 07:56 | 61.54984 | -31.10801 | 29790 ft | 401 kts | 227° |
| 2026-04-29 07:56 | 61.51297 | -31.19638 | 29791 ft | 403 kts | 227° |
| 2026-04-29 07:57 | 61.47588 | -31.28496 | 29790 ft | 404 kts | 227° |
| 2026-04-29 07:57 | 61.43894 | -31.37282 | 29787 ft | 404 kts | 227° |
| 2026-04-29 07:58 | 61.40173 | -31.46100 | 29787 ft | 404 kts | 227° |
| 2026-04-29 07:58 | 61.36454 | -31.54875 | 29787 ft | 404 kts | 227° |
| 2026-04-29 07:59 | 61.32714 | -31.63668 | 29795 ft | 405 kts | 227° |
| 2026-04-29 07:59 | 61.28954 | -31.72469 | 29789 ft | 408 kts | 227° |
| 2026-04-29 08:00 | 61.25167 | -31.81299 | 29791 ft | 409 kts | 227° |
| 2026-04-29 08:00 | 61.21397 | -31.90059 | 29791 ft | 408 kts | 227° |
| 2026-04-29 08:01 | 61.17598 | -31.98856 | 29785 ft | 409 kts | 227° |
| 2026-04-29 08:01 | 61.13812 | -32.07588 | 29799 ft | 406 kts | 226° |
| 2026-04-29 08:02 | 61.10043 | -32.16244 | 29799 ft | 406 kts | 227° |
| 2026-04-29 08:02 | 61.06263 | -32.24887 | 29793 ft | 409 kts | 227° |
| 2026-04-29 08:03 | 61.02436 | -32.33608 | 29801 ft | 409 kts | 227° |
| 2026-04-29 08:03 | 60.98603 | -32.42307 | 29798 ft | 409 kts | 227° |
| 2026-04-29 08:04 | 60.94792 | -32.50925 | 29800 ft | 409 kts | 227° |
| 2026-04-29 08:04 | 60.90947 | -32.59586 | 29794 ft | 409 kts | 226° |
| 2026-04-29 08:05 | 60.87087 | -32.68247 | 29805 ft | 412 kts | 227° |
| 2026-04-29 08:05 | 60.83200 | -32.76934 | 29801 ft | 413 kts | 227° |
| 2026-04-29 08:06 | 60.79330 | -32.85553 | 29804 ft | 413 kts | 227° |
| 2026-04-29 08:06 | 60.75423 | -32.94219 | 29799 ft | 413 kts | 227° |
| 2026-04-29 08:07 | 60.71513 | -33.02858 | 29802 ft | 413 kts | 227° |
| 2026-04-29 08:07 | 60.67598 | -33.11472 | 29813 ft | 414 kts | 227° |
| 2026-04-29 08:08 | 60.63685 | -33.20054 | 29790 ft | 417 kts | 227° |
| 2026-04-29 08:08 | 60.59717 | -33.28721 | 29792 ft | 418 kts | 227° |
| 2026-04-29 08:09 | 60.55744 | -33.37364 | 29821 ft | 417 kts | 227° |
| 2026-04-29 08:09 | 60.51794 | -33.45924 | 29820 ft | 418 kts | 227° |
| 2026-04-29 08:10 | 60.47813 | -33.54519 | 29812 ft | 418 kts | 227° |
| 2026-04-29 08:10 | 60.44496 | -33.61656 | 29827 ft | 419 kts | 227° |
| 2026-04-29 08:11 | 60.40487 | -33.70253 | 29823 ft | 420 kts | 227° |
| 2026-04-29 08:11 | 60.36460 | -33.78850 | 29805 ft | 421 kts | 227° |
| 2026-04-29 08:12 | 60.32429 | -33.87427 | 29805 ft | 421 kts | 227° |
| 2026-04-29 08:12 | 60.28421 | -33.95920 | 29827 ft | 421 kts | 227° |
| 2026-04-29 08:13 | 60.24372 | -34.04468 | 29832 ft | 421 kts | 227° |
| 2026-04-29 08:13 | 60.20307 | -34.13015 | 29828 ft | 423 kts | 227° |
| 2026-04-29 08:14 | 60.16216 | -34.21588 | 29812 ft | 427 kts | 227° |
| 2026-04-29 08:14 | 60.12095 | -34.30191 | 29832 ft | 432 kts | 227° |
| 2026-04-29 08:15 | 60.07905 | -34.38902 | 29846 ft | 433 kts | 226° |
| 2026-04-29 08:15 | 60.03736 | -34.47535 | 29843 ft | 433 kts | 226° |
| 2026-04-29 08:16 | 59.99535 | -34.56197 | 29840 ft | 434 kts | 227° |
| 2026-04-29 08:16 | 59.95342 | -34.64814 | 29846 ft | 435 kts | 227° |
| 2026-04-29 08:17 | 59.91114 | -34.73470 | 29845 ft | 435 kts | 226° |
| 2026-04-29 08:17 | 59.86878 | -34.82108 | 29842 ft | 435 kts | 226° |
| 2026-04-29 08:18 | 59.82661 | -34.90672 | 29844 ft | 435 kts | 226° |
| 2026-04-29 08:18 | 59.78411 | -34.99269 | 29847 ft | 435 kts | 227° |
| 2026-04-29 08:19 | 59.74146 | -35.07865 | 29865 ft | 436 kts | 227° |
| 2026-04-29 08:19 | 59.69911 | -35.16369 | 29865 ft | 436 kts | 227° |
| 2026-04-29 08:20 | 59.65634 | -35.24922 | 29867 ft | 436 kts | 226° |
| 2026-04-29 08:20 | 59.61355 | -35.33448 | 29868 ft | 436 kts | 226° |
| 2026-04-29 08:21 | 59.57097 | -35.41898 | 29863 ft | 436 kts | 226° |
| 2026-04-29 08:21 | 59.52807 | -35.50380 | 29876 ft | 436 kts | 226° |
| 2026-04-29 08:22 | 59.48512 | -35.58839 | 29875 ft | 436 kts | 226° |
| 2026-04-29 08:22 | 59.44215 | -35.67271 | 29870 ft | 436 kts | 226° |
| 2026-04-29 08:23 | 59.39904 | -35.75697 | 29877 ft | 436 kts | 226° |
| 2026-04-29 08:23 | 59.35628 | -35.84025 | 29886 ft | 434 kts | 226° |
| 2026-04-29 08:24 | 59.31309 | -35.92399 | 29897 ft | 436 kts | 226° |
| 2026-04-29 08:24 | 59.27011 | -36.00705 | 29899 ft | 436 kts | 226° |
| 2026-04-29 08:25 | 59.22682 | -36.09040 | 29899 ft | 436 kts | 226° |
| 2026-04-29 08:25 | 59.18351 | -36.17348 | 29907 ft | 436 kts | 226° |
| 2026-04-29 08:26 | 59.14005 | -36.25650 | 29897 ft | 436 kts | 226° |
| 2026-04-29 08:26 | 59.09676 | -36.33893 | 29918 ft | 438 kts | 226° |
| 2026-04-29 08:27 | 59.05296 | -36.42206 | 29917 ft | 439 kts | 226° |
| 2026-04-29 08:27 | 59.00940 | -36.50438 | 29933 ft | 440 kts | 226° |
| 2026-04-29 08:28 | 58.96555 | -36.58690 | 29937 ft | 439 kts | 226° |
| 2026-04-29 08:28 | 58.92161 | -36.66930 | 29938 ft | 440 kts | 226° |
| 2026-04-29 08:29 | 58.87774 | -36.75126 | 29946 ft | 442 kts | 226° |
| 2026-04-29 08:29 | 58.83343 | -36.83375 | 29943 ft | 442 kts | 226° |
| 2026-04-29 08:30 | 58.76683 | -36.95715 | 29947 ft | 442 kts | 227° |
| 2026-04-29 08:31 | 58.72253 | -37.03889 | 29951 ft | 442 kts | 226° |
| 2026-04-29 08:31 | 58.67799 | -37.12072 | 29951 ft | 442 kts | 227° |
| 2026-04-29 08:32 | 58.63357 | -37.20201 | 29982 ft | 445 kts | 226° |
| 2026-04-29 08:32 | 58.58867 | -37.28390 | 29979 ft | 446 kts | 227° |
| 2026-04-29 08:33 | 58.54363 | -37.36575 | 29984 ft | 445 kts | 227° |
| 2026-04-29 08:33 | 58.49861 | -37.44727 | 29983 ft | 446 kts | 227° |
| 2026-04-29 08:34 | 58.45371 | -37.52821 | 30005 ft | 447 kts | 227° |
| 2026-04-29 08:34 | 58.40832 | -37.60980 | 29982 ft | 449 kts | 227° |
| 2026-04-29 08:35 | 58.36278 | -37.69133 | 29992 ft | 449 kts | 226° |
| 2026-04-29 08:35 | 58.31740 | -37.77228 | 29997 ft | 449 kts | 226° |
| 2026-04-29 08:36 | 58.27170 | -37.85345 | 30030 ft | 449 kts | 226° |
| 2026-04-29 08:36 | 58.22598 | -37.93436 | 30018 ft | 450 kts | 227° |
| 2026-04-29 08:37 | 58.17985 | -38.01580 | 30022 ft | 454 kts | 227° |
| 2026-04-29 08:37 | 58.13373 | -38.09688 | 30026 ft | 454 kts | 227° |
| 2026-04-29 08:38 | 58.08746 | -38.17788 | 30030 ft | 454 kts | 226° |
| 2026-04-29 08:38 | 58.04101 | -38.25891 | 30027 ft | 454 kts | 226° |
| 2026-04-29 08:39 | 57.99429 | -38.34013 | 30037 ft | 457 kts | 227° |
| 2026-04-29 08:39 | 57.94759 | -38.42101 | 30037 ft | 459 kts | 227° |
| 2026-04-29 08:40 | 57.90045 | -38.50230 | 30056 ft | 459 kts | 226° |
| 2026-04-29 08:40 | 57.85329 | -38.58335 | 30057 ft | 459 kts | 227° |
| 2026-04-29 08:41 | 57.80603 | -38.66427 | 30025 ft | 459 kts | 227° |
| 2026-04-29 08:41 | 57.75891 | -38.74469 | 30070 ft | 463 kts | 227° |
| 2026-04-29 08:42 | 57.71102 | -38.82613 | 30072 ft | 465 kts | 227° |
| 2026-04-29 08:42 | 57.66307 | -38.90728 | 30083 ft | 465 kts | 227° |
| 2026-04-29 08:43 | 57.61489 | -38.98854 | 30078 ft | 465 kts | 227° |
| 2026-04-29 08:43 | 57.56705 | -39.06892 | 30065 ft | 466 kts | 228° |
| 2026-04-29 08:44 | 57.51874 | -39.14980 | 30097 ft | 468 kts | 227° |
| 2026-04-29 08:44 | 57.47024 | -39.23072 | 30097 ft | 468 kts | 227° |
| 2026-04-29 08:45 | 57.42197 | -39.31096 | 30092 ft | 468 kts | 227° |
| 2026-04-29 08:45 | 57.37328 | -39.39158 | 30102 ft | 468 kts | 227° |
| 2026-04-29 08:46 | 57.32456 | -39.47196 | 30105 ft | 468 kts | 227° |
| 2026-04-29 08:46 | 57.27611 | -39.55160 | 30107 ft | 468 kts | 227° |
| 2026-04-29 08:47 | 57.22729 | -39.63155 | 30112 ft | 468 kts | 227° |
| 2026-04-29 08:47 | 57.17834 | -39.71143 | 30124 ft | 469 kts | 227° |
| 2026-04-29 08:48 | 57.12967 | -39.79055 | 30090 ft | 469 kts | 228° |
| 2026-04-29 08:48 | 57.08056 | -39.87014 | 30131 ft | 473 kts | 229° |
| 2026-04-29 08:49 | 57.03082 | -39.95045 | 30136 ft | 474 kts | 229° |
| 2026-04-29 08:49 | 56.98383 | -40.03426 | 30139 ft | 468 kts | 234° |
| 2026-04-29 08:50 | 56.94056 | -40.12225 | 30143 ft | 467 kts | 236° |
| 2026-04-29 08:50 | 56.89751 | -40.21152 | 30146 ft | 469 kts | 237° |
| 2026-04-29 08:51 | 56.85438 | -40.30074 | 30150 ft | 471 kts | 237° |
| 2026-04-29 08:51 | 56.81065 | -40.39046 | 30150 ft | 472 kts | 237° |
| 2026-04-29 08:52 | 56.76692 | -40.47968 | 30154 ft | 472 kts | 237° |
| 2026-04-29 08:52 | 56.72305 | -40.56884 | 30090 ft | 472 kts | 237° |
| 2026-04-29 08:53 | 56.67929 | -40.65753 | 30165 ft | 476 kts | 238° |
| 2026-04-29 08:53 | 56.63484 | -40.74726 | 30171 ft | 476 kts | 238° |
| 2026-04-29 08:54 | 56.59055 | -40.83624 | 30172 ft | 477 kts | 237° |
| 2026-04-29 08:54 | 56.54602 | -40.92540 | 30171 ft | 477 kts | 237° |
| 2026-04-29 08:55 | 56.50136 | -41.01446 | 30176 ft | 477 kts | 238° |
| 2026-04-29 08:55 | 56.45660 | -41.10344 | 30184 ft | 477 kts | 238° |
| 2026-04-29 08:56 | 56.41215 | -41.19148 | 30179 ft | 477 kts | 238° |
| 2026-04-29 08:56 | 56.36730 | -41.27997 | 30184 ft | 477 kts | 238° |
| 2026-04-29 08:57 | 56.32242 | -41.36825 | 30160 ft | 477 kts | 238° |
| 2026-04-29 08:57 | 56.27746 | -41.45629 | 30189 ft | 477 kts | 238° |
| 2026-04-29 08:58 | 56.23239 | -41.54416 | 30194 ft | 477 kts | 238° |
| 2026-04-29 08:58 | 56.18756 | -41.63127 | 30195 ft | 477 kts | 238° |
| 2026-04-29 08:59 | 56.14232 | -41.71886 | 30195 ft | 478 kts | 238° |
| 2026-04-29 08:59 | 56.10471 | -41.79143 | 30193 ft | 476 kts | 237° |
| 2026-04-29 09:00 | 56.05223 | -41.89227 | 30188 ft | 475 kts | 237° |
| 2026-04-29 09:00 | 56.00708 | -41.97874 | 30203 ft | 475 kts | 237° |
| 2026-04-29 09:01 | 55.96946 | -42.05057 | 30209 ft | 475 kts | 237° |
| 2026-04-29 09:01 | 55.92419 | -42.13669 | 30203 ft | 475 kts | 236° |
| 2026-04-29 09:02 | 55.87884 | -42.22261 | 30204 ft | 474 kts | 236° |
| 2026-04-29 09:02 | 55.83358 | -42.30807 | 30209 ft | 474 kts | 236° |
| 2026-04-29 09:03 | 55.78843 | -42.39303 | 30212 ft | 474 kts | 236° |
| 2026-04-29 09:03 | 55.74304 | -42.47813 | 30211 ft | 474 kts | 236° |
| 2026-04-29 09:04 | 55.69749 | -42.56323 | 30215 ft | 475 kts | 235° |
| 2026-04-29 09:04 | 55.65183 | -42.64819 | 30213 ft | 475 kts | 235° |
| 2026-04-29 09:05 | 55.60624 | -42.73272 | 30213 ft | 475 kts | 235° |
| 2026-04-29 09:05 | 55.56074 | -42.81678 | 30217 ft | 475 kts | 235° |
| 2026-04-29 09:06 | 55.51496 | -42.90107 | 30209 ft | 476 kts | 234° |
| 2026-04-29 09:06 | 55.46898 | -42.98544 | 30214 ft | 476 kts | 234° |
| 2026-04-29 09:07 | 55.42316 | -43.06918 | 30211 ft | 477 kts | 234° |
| 2026-04-29 09:07 | 55.37698 | -43.15328 | 30233 ft | 477 kts | 234° |
| 2026-04-29 09:08 | 55.33105 | -43.23664 | 30215 ft | 477 kts | 234° |
| 2026-04-29 09:08 | 55.28479 | -43.32030 | 30216 ft | 477 kts | 234° |
| 2026-04-29 09:09 | 55.23851 | -43.40369 | 30214 ft | 477 kts | 234° |
| 2026-04-29 09:09 | 55.19217 | -43.48691 | 30241 ft | 477 kts | 234° |
| 2026-04-29 09:10 | 55.14597 | -43.56957 | 30234 ft | 477 kts | 234° |
| 2026-04-29 09:10 | 55.09941 | -43.65261 | 30227 ft | 478 kts | 233° |
| 2026-04-29 09:11 | 55.05302 | -43.73502 | 30233 ft | 478 kts | 233° |
| 2026-04-29 09:11 | 55.00623 | -43.81784 | 30230 ft | 478 kts | 233° |
| 2026-04-29 09:12 | 54.95950 | -43.90027 | 30231 ft | 478 kts | 233° |
| 2026-04-29 09:12 | 54.91252 | -43.98289 | 30233 ft | 479 kts | 233° |
| 2026-04-29 09:13 | 54.86546 | -44.06532 | 30235 ft | 480 kts | 233° |
| 2026-04-29 09:13 | 54.81864 | -44.14703 | 30238 ft | 480 kts | 233° |
| 2026-04-29 09:14 | 54.77145 | -44.22913 | 30235 ft | 480 kts | 233° |
| 2026-04-29 09:14 | 54.72447 | -44.31057 | 30236 ft | 480 kts | 233° |
| 2026-04-29 09:15 | 54.67718 | -44.39226 | 30238 ft | 480 kts | 233° |
| 2026-04-29 09:15 | 54.62975 | -44.47392 | 30242 ft | 481 kts | 232° |
| 2026-04-29 09:16 | 54.58256 | -44.55486 | 30241 ft | 481 kts | 232° |
| 2026-04-29 09:16 | 54.53499 | -44.63619 | 30246 ft | 481 kts | 232° |
| 2026-04-29 09:17 | 54.48731 | -44.71742 | 30249 ft | 481 kts | 232° |
| 2026-04-29 09:17 | 54.43967 | -44.79829 | 30249 ft | 482 kts | 232° |
| 2026-04-29 09:18 | 54.39210 | -44.87876 | 30255 ft | 482 kts | 232° |
| 2026-04-29 09:18 | 54.34421 | -44.95949 | 30219 ft | 482 kts | 232° |
| 2026-04-29 09:19 | 54.29667 | -45.03939 | 30254 ft | 482 kts | 231° |
| 2026-04-29 09:19 | 54.24866 | -45.11979 | 30254 ft | 482 kts | 231° |
| 2026-04-29 09:20 | 54.20057 | -45.20005 | 30259 ft | 482 kts | 231° |
| 2026-04-29 09:20 | 54.15240 | -45.28017 | 30214 ft | 482 kts | 231° |
| 2026-04-29 09:21 | 54.10455 | -45.35946 | 30256 ft | 483 kts | 231° |
| 2026-04-29 09:21 | 54.05623 | -45.43926 | 30257 ft | 483 kts | 231° |
| 2026-04-29 09:22 | 54.00784 | -45.51888 | 30261 ft | 483 kts | 231° |
| 2026-04-29 09:22 | 53.95942 | -45.59832 | 30277 ft | 483 kts | 231° |
| 2026-04-29 09:23 | 53.91120 | -45.67717 | 30267 ft | 484 kts | 231° |
| 2026-04-29 09:23 | 53.86252 | -45.75649 | 30272 ft | 485 kts | 231° |
| 2026-04-29 09:24 | 53.81371 | -45.83574 | 30271 ft | 485 kts | 231° |
| 2026-04-29 09:24 | 53.76523 | -45.91419 | 30268 ft | 485 kts | 231° |
| 2026-04-29 09:25 | 53.71631 | -45.99308 | 30275 ft | 486 kts | 231° |
| 2026-04-29 09:25 | 53.66720 | -46.07203 | 30274 ft | 487 kts | 230° |
| 2026-04-29 09:26 | 53.61836 | -46.15026 | 30274 ft | 487 kts | 230° |
| 2026-04-29 09:26 | 53.56907 | -46.22895 | 30276 ft | 487 kts | 230° |
| 2026-04-29 09:27 | 53.51982 | -46.30733 | 30279 ft | 488 kts | 230° |
| 2026-04-29 09:27 | 53.47065 | -46.38533 | 30278 ft | 488 kts | 230° |
| 2026-04-29 09:28 | 53.42104 | -46.46373 | 30278 ft | 488 kts | 230° |
| 2026-04-29 09:28 | 53.37186 | -46.54119 | 30280 ft | 488 kts | 230° |
| 2026-04-29 09:29 | 53.32193 | -46.61957 | 30276 ft | 489 kts | 230° |
| 2026-04-29 09:29 | 53.24776 | -46.73553 | 30283 ft | 489 kts | 230° |
| 2026-04-29 09:30 | 53.19804 | -46.81294 | 30284 ft | 489 kts | 230° |
| 2026-04-29 09:30 | 53.14825 | -46.89021 | 30278 ft | 489 kts | 229° |
| 2026-04-29 09:31 | 53.09834 | -46.96740 | 30288 ft | 490 kts | 229° |
| 2026-04-29 09:31 | 53.04839 | -47.04440 | 30287 ft | 490 kts | 229° |
| 2026-04-29 09:32 | 52.99836 | -47.12127 | 30286 ft | 490 kts | 229° |
| 2026-04-29 09:32 | 52.94825 | -47.19801 | 30293 ft | 490 kts | 229° |
| 2026-04-29 09:33 | 52.89800 | -47.27473 | 30291 ft | 491 kts | 229° |
| 2026-04-29 09:33 | 52.84770 | -47.35122 | 30283 ft | 491 kts | 229° |
| 2026-04-29 09:34 | 52.79731 | -47.42763 | 30286 ft | 492 kts | 229° |
| 2026-04-29 09:34 | 52.74687 | -47.50385 | 30295 ft | 492 kts | 228° |
| 2026-04-29 09:35 | 52.69623 | -47.58014 | 30299 ft | 493 kts | 228° |
| 2026-04-29 09:35 | 52.64550 | -47.65630 | 30300 ft | 493 kts | 228° |
| 2026-04-29 09:36 | 52.59509 | -47.73174 | 30299 ft | 493 kts | 228° |
| 2026-04-29 09:36 | 52.54426 | -47.80754 | 30296 ft | 494 kts | 227° |
| 2026-04-29 09:37 | 52.49335 | -47.88324 | 30301 ft | 494 kts | 227° |
| 2026-04-29 09:37 | 52.44237 | -47.95878 | 30304 ft | 494 kts | 227° |
| 2026-04-29 09:38 | 52.39137 | -48.03411 | 30306 ft | 494 kts | 227° |
| 2026-04-29 09:38 | 52.34030 | -48.10930 | 30301 ft | 494 kts | 227° |
| 2026-04-29 09:39 | 52.28911 | -48.18442 | 30305 ft | 494 kts | 227° |
| 2026-04-29 09:39 | 52.23786 | -48.25938 | 30305 ft | 494 kts | 227° |
| 2026-04-29 09:40 | 52.18689 | -48.33370 | 30308 ft | 494 kts | 227° |
| 2026-04-29 09:40 | 52.13562 | -48.40822 | 30324 ft | 494 kts | 226° |
| 2026-04-29 09:41 | 52.08426 | -48.48262 | 30319 ft | 494 kts | 226° |
| 2026-04-29 09:41 | 52.03287 | -48.55683 | 30315 ft | 494 kts | 226° |
| 2026-04-29 09:42 | 51.98139 | -48.63093 | 30272 ft | 494 kts | 226° |
| 2026-04-29 09:42 | 51.92990 | -48.70482 | 30317 ft | 494 kts | 226° |
| 2026-04-29 09:43 | 51.87832 | -48.77859 | 30319 ft | 494 kts | 226° |
| 2026-04-29 09:43 | 51.82672 | -48.85214 | 30319 ft | 494 kts | 226° |
| 2026-04-29 09:44 | 51.77514 | -48.92546 | 30318 ft | 494 kts | 225° |
| 2026-04-29 09:44 | 51.72352 | -48.99858 | 30327 ft | 493 kts | 225° |
| 2026-04-29 09:45 | 51.67189 | -49.07148 | 30327 ft | 493 kts | 225° |
| 2026-04-29 09:45 | 51.62027 | -49.14415 | 30332 ft | 493 kts | 225° |
| 2026-04-29 09:46 | 51.57730 | -49.20449 | 30320 ft | 493 kts | 225° |
| 2026-04-29 09:46 | 51.52573 | -49.27665 | 30333 ft | 491 kts | 225° |
| 2026-04-29 09:47 | 51.46582 | -49.36018 | 30332 ft | 491 kts | 224° |
| 2026-04-29 09:47 | 51.42097 | -49.41757 | 30336 ft | 493 kts | 221° |
| 2026-04-29 09:48 | 51.36660 | -49.48437 | 30336 ft | 493 kts | 221° |
| 2026-04-29 09:48 | 51.31196 | -49.55069 | 30339 ft | 493 kts | 221° |
| 2026-04-29 09:49 | 51.25725 | -49.61701 | 30341 ft | 493 kts | 221° |
| 2026-04-29 09:49 | 51.20258 | -49.68321 | 30345 ft | 494 kts | 221° |
| 2026-04-29 09:50 | 51.14814 | -49.74902 | 30344 ft | 495 kts | 221° |
| 2026-04-29 09:50 | 51.09326 | -49.81515 | 30344 ft | 494 kts | 221° |
| 2026-04-29 09:51 | 51.03836 | -49.88109 | 30344 ft | 494 kts | 221° |
| 2026-04-29 09:51 | 50.98344 | -49.94685 | 30326 ft | 494 kts | 221° |
| 2026-04-29 09:52 | 50.92857 | -50.01235 | 30349 ft | 494 kts | 221° |
| 2026-04-29 09:52 | 50.87354 | -50.07784 | 30350 ft | 494 kts | 221° |
| 2026-04-29 09:53 | 50.81857 | -50.14307 | 30351 ft | 494 kts | 220° |
| 2026-04-29 09:53 | 50.76360 | -50.20810 | 30355 ft | 493 kts | 220° |
| 2026-04-29 09:54 | 50.70871 | -50.27282 | 30359 ft | 492 kts | 220° |
| 2026-04-29 09:54 | 50.65382 | -50.33737 | 30356 ft | 492 kts | 220° |
| 2026-04-29 09:55 | 50.59885 | -50.40182 | 30360 ft | 492 kts | 220° |
| 2026-04-29 09:55 | 50.54385 | -50.46611 | 30361 ft | 492 kts | 220° |
| 2026-04-29 09:56 | 50.48888 | -50.53017 | 30363 ft | 492 kts | 220° |
| 2026-04-29 09:56 | 50.43387 | -50.59410 | 30361 ft | 492 kts | 220° |
| 2026-04-29 09:57 | 50.37915 | -50.65750 | 30346 ft | 492 kts | 220° |
| 2026-04-29 09:57 | 50.32407 | -50.72113 | 30360 ft | 492 kts | 219° |
| 2026-04-29 09:58 | 50.26890 | -50.78466 | 30362 ft | 492 kts | 219° |
| 2026-04-29 09:58 | 50.21374 | -50.84801 | 30365 ft | 492 kts | 219° |
| 2026-04-29 09:59 | 50.15851 | -50.91125 | 30366 ft | 492 kts | 219° |
| 2026-04-29 09:59 | 50.10329 | -50.97428 | 30371 ft | 492 kts | 219° |
| 2026-04-29 10:00 | 50.04812 | -51.03709 | 30371 ft | 492 kts | 219° |
| 2026-04-29 10:00 | 49.99277 | -51.09991 | 30364 ft | 493 kts | 219° |
| 2026-04-29 10:01 | 49.93735 | -51.16261 | 30360 ft | 492 kts | 219° |
| 2026-04-29 10:01 | 49.88211 | -51.22495 | 30365 ft | 491 kts | 219° |
| 2026-04-29 10:02 | 49.82685 | -51.28714 | 30362 ft | 491 kts | 219° |
| 2026-04-29 10:02 | 49.77156 | -51.34917 | 30365 ft | 491 kts | 218° |
| 2026-04-29 10:03 | 49.71634 | -51.41093 | 30362 ft | 489 kts | 218° |
| 2026-04-29 10:03 | 49.66154 | -51.47207 | 30371 ft | 489 kts | 218° |
| 2026-04-29 10:04 | 49.60638 | -51.53343 | 30371 ft | 489 kts | 218° |
| 2026-04-29 10:04 | 49.55122 | -51.59461 | 30369 ft | 488 kts | 218° |
| 2026-04-29 10:05 | 49.49602 | -51.65566 | 30367 ft | 488 kts | 218° |
| 2026-04-29 10:05 | 49.44080 | -51.71656 | 30368 ft | 488 kts | 218° |
| 2026-04-29 10:06 | 49.38555 | -51.77732 | 30369 ft | 488 kts | 218° |
| 2026-04-29 10:06 | 49.33033 | -51.83789 | 30375 ft | 488 kts | 217° |
| 2026-04-29 10:07 | 49.27505 | -51.89834 | 30367 ft | 488 kts | 217° |
| 2026-04-29 10:07 | 49.21967 | -51.95873 | 30368 ft | 488 kts | 217° |
| 2026-04-29 10:08 | 49.16434 | -52.01890 | 30369 ft | 488 kts | 217° |
| 2026-04-29 10:08 | 49.10937 | -52.07850 | 30369 ft | 488 kts | 217° |
| 2026-04-29 10:09 | 49.05363 | -52.13879 | 30369 ft | 488 kts | 217° |
| 2026-04-29 10:09 | 48.99865 | -52.19808 | 30358 ft | 488 kts | 217° |
| 2026-04-29 10:10 | 48.94321 | -52.25770 | 30368 ft | 488 kts | 217° |
| 2026-04-29 10:10 | 48.88777 | -52.31716 | 30373 ft | 488 kts | 217° |
| 2026-04-29 10:11 | 48.83220 | -52.37659 | 30374 ft | 489 kts | 217° |
| 2026-04-29 10:11 | 48.77655 | -52.43593 | 30374 ft | 489 kts | 217° |
| 2026-04-29 10:12 | 48.72086 | -52.49516 | 30369 ft | 489 kts | 217° |
| 2026-04-29 10:12 | 48.66515 | -52.55425 | 30370 ft | 489 kts | 217° |
| 2026-04-29 10:13 | 48.60937 | -52.61325 | 30363 ft | 489 kts | 216° |
| 2026-04-29 10:13 | 48.55402 | -52.67164 | 30365 ft | 488 kts | 216° |
| 2026-04-29 10:14 | 48.49832 | -52.73023 | 30366 ft | 488 kts | 216° |
| 2026-04-29 10:14 | 48.44261 | -52.78867 | 30365 ft | 488 kts | 216° |
| 2026-04-29 10:15 | 48.38692 | -52.84693 | 30359 ft | 487 kts | 216° |
| 2026-04-29 10:15 | 48.33130 | -52.90497 | 30367 ft | 486 kts | 216° |
| 2026-04-29 10:16 | 48.28473 | -52.95344 | 30362 ft | 486 kts | 216° |
| 2026-04-29 10:16 | 48.22011 | -53.02053 | 30359 ft | 486 kts | 216° |
| 2026-04-29 10:17 | 48.16451 | -53.07808 | 30355 ft | 485 kts | 216° |
| 2026-04-29 10:17 | 48.10896 | -53.13542 | 30362 ft | 485 kts | 216° |
| 2026-04-29 10:18 | 48.05335 | -53.19265 | 30356 ft | 485 kts | 216° |
| 2026-04-29 10:18 | 47.99773 | -53.24977 | 30354 ft | 484 kts | 215° |
| 2026-04-29 10:19 | 47.94225 | -53.30658 | 30362 ft | 484 kts | 215° |
| 2026-04-29 10:19 | 47.88700 | -53.36301 | 30365 ft | 484 kts | 215° |
| 2026-04-29 10:20 | 47.83141 | -53.41963 | 30378 ft | 484 kts | 214° |
| 2026-04-29 10:20 | 47.77582 | -53.47610 | 30378 ft | 483 kts | 214° |
| 2026-04-29 10:21 | 47.72026 | -53.53239 | 30368 ft | 483 kts | 214° |
| 2026-04-29 10:21 | 47.66469 | -53.58855 | 30360 ft | 483 kts | 214° |
| 2026-04-29 10:22 | 47.60910 | -53.64458 | 30367 ft | 483 kts | 214° |
| 2026-04-29 10:22 | 47.55356 | -53.70041 | 30381 ft | 483 kts | 214° |
| 2026-04-29 10:23 | 47.49797 | -53.75616 | 30377 ft | 482 kts | 214° |
| 2026-04-29 10:23 | 47.44238 | -53.81175 | 30376 ft | 482 kts | 213° |
| 2026-04-29 10:24 | 47.38678 | -53.86721 | 30375 ft | 482 kts | 213° |
| 2026-04-29 10:24 | 47.33116 | -53.92255 | 30376 ft | 482 kts | 213° |
| 2026-04-29 10:25 | 47.27545 | -53.97782 | 30392 ft | 483 kts | 213° |
| 2026-04-29 10:25 | 47.22015 | -54.03256 | 30390 ft | 482 kts | 213° |
| 2026-04-29 10:26 | 47.16449 | -54.08752 | 30381 ft | 482 kts | 213° |
| 2026-04-29 10:26 | 47.10880 | -54.14236 | 30379 ft | 482 kts | 213° |
| 2026-04-29 10:27 | 47.02535 | -54.22427 | 30382 ft | 481 kts | 213° |
| 2026-04-29 10:28 | 46.96976 | -54.27866 | 30381 ft | 480 kts | 213° |
| 2026-04-29 10:28 | 46.91415 | -54.33293 | 30387 ft | 480 kts | 213° |
| 2026-04-29 10:29 | 46.85850 | -54.38710 | 30380 ft | 480 kts | 212° |
| 2026-04-29 10:29 | 46.80295 | -54.44104 | 30383 ft | 480 kts | 212° |
| 2026-04-29 10:30 | 46.74729 | -54.49495 | 30398 ft | 480 kts | 212° |
| 2026-04-29 10:30 | 46.69169 | -54.54868 | 30392 ft | 480 kts | 211° |
| 2026-04-29 10:31 | 46.63595 | -54.60239 | 30396 ft | 481 kts | 211° |
| 2026-04-29 10:31 | 46.58020 | -54.65597 | 30389 ft | 481 kts | 211° |
| 2026-04-29 10:32 | 46.52473 | -54.70917 | 30392 ft | 481 kts | 211° |
| 2026-04-29 10:32 | 46.46888 | -54.76259 | 30383 ft | 481 kts | 211° |
| 2026-04-29 10:33 | 46.41293 | -54.81597 | 30386 ft | 481 kts | 211° |
| 2026-04-29 10:33 | 46.35698 | -54.86922 | 30383 ft | 481 kts | 211° |
| 2026-04-29 10:34 | 46.30103 | -54.92234 | 30385 ft | 481 kts | 211° |
| 2026-04-29 10:34 | 46.24503 | -54.97538 | 30385 ft | 481 kts | 211° |
| 2026-04-29 10:35 | 46.18904 | -55.02827 | 30384 ft | 481 kts | 211° |
| 2026-04-29 10:35 | 46.14248 | -55.07215 | 30387 ft | 480 kts | 211° |
| 2026-04-29 10:36 | 46.08662 | -55.12469 | 30380 ft | 479 kts | 211° |
| 2026-04-29 10:36 | 46.03073 | -55.17713 | 30378 ft | 479 kts | 211° |
| 2026-04-29 10:37 | 45.97477 | -55.22949 | 30387 ft | 479 kts | 212° |
| 2026-04-29 10:37 | 45.91921 | -55.28137 | 30379 ft | 475 kts | 212° |
| 2026-04-29 10:38 | 45.86418 | -55.33262 | 30380 ft | 474 kts | 212° |
| 2026-04-29 10:38 | 45.80843 | -55.38441 | 30366 ft | 474 kts | 213° |
| 2026-04-29 10:39 | 45.75324 | -55.43555 | 30371 ft | 471 kts | 214° |
| 2026-04-29 10:39 | 45.69868 | -55.48602 | 30377 ft | 470 kts | 214° |
| 2026-04-29 10:40 | 45.64377 | -55.53669 | 30371 ft | 470 kts | 214° |
| 2026-04-29 10:40 | 45.58891 | -55.58726 | 30373 ft | 470 kts | 215° |
| 2026-04-29 10:41 | 45.53396 | -55.63769 | 30363 ft | 470 kts | 215° |
| 2026-04-29 10:41 | 45.47891 | -55.68807 | 30376 ft | 470 kts | 214° |
| 2026-04-29 10:42 | 45.42391 | -55.73830 | 30362 ft | 469 kts | 216° |
| 2026-04-29 10:42 | 45.36901 | -55.78835 | 30368 ft | 468 kts | 215° |
| 2026-04-29 10:43 | 45.31411 | -55.83829 | 30367 ft | 468 kts | 215° |
| 2026-04-29 10:43 | 45.25963 | -55.88774 | 30356 ft | 468 kts | 215° |
| 2026-04-29 10:44 | 45.20480 | -55.93737 | 30356 ft | 467 kts | 215° |
| 2026-04-29 10:44 | 45.14996 | -55.98690 | 30358 ft | 467 kts | 215° |
| 2026-04-29 10:45 | 45.09518 | -56.03626 | 30354 ft | 467 kts | 215° |
| 2026-04-29 10:45 | 45.04045 | -56.08544 | 30346 ft | 465 kts | 215° |
| 2026-04-29 10:46 | 44.98583 | -56.13444 | 30357 ft | 465 kts | 215° |
| 2026-04-29 10:46 | 44.93119 | -56.18334 | 30334 ft | 465 kts | 215° |
| 2026-04-29 10:47 | 44.87660 | -56.23211 | 30347 ft | 464 kts | 214° |
| 2026-04-29 10:47 | 44.82247 | -56.28031 | 30345 ft | 463 kts | 214° |
| 2026-04-29 10:48 | 44.76801 | -56.32871 | 30324 ft | 463 kts | 214° |
| 2026-04-29 10:48 | 44.71348 | -56.37708 | 30333 ft | 463 kts | 214° |
| 2026-04-29 10:49 | 44.65906 | -56.42524 | 30333 ft | 462 kts | 214° |
| 2026-04-29 10:49 | 44.60471 | -56.47320 | 30311 ft | 462 kts | 214° |
| 2026-04-29 10:50 | 44.55029 | -56.52113 | 30327 ft | 462 kts | 213° |
| 2026-04-29 10:50 | 44.49594 | -56.56890 | 30323 ft | 461 kts | 213° |
| 2026-04-29 10:51 | 44.44168 | -56.61648 | 30320 ft | 460 kts | 213° |
| 2026-04-29 10:51 | 44.38740 | -56.66398 | 30308 ft | 460 kts | 213° |
| 2026-04-29 10:52 | 44.33314 | -56.71135 | 30313 ft | 459 kts | 213° |
| 2026-04-29 10:52 | 44.27896 | -56.75854 | 30309 ft | 459 kts | 213° |
| 2026-04-29 10:53 | 44.22475 | -56.80567 | 30301 ft | 459 kts | 213° |
| 2026-04-29 10:53 | 44.17059 | -56.85265 | 30300 ft | 458 kts | 213° |
| 2026-04-29 10:54 | 44.11686 | -56.89915 | 30303 ft | 458 kts | 213° |
| 2026-04-29 10:54 | 44.06271 | -56.94590 | 30295 ft | 458 kts | 213° |
| 2026-04-29 10:55 | 44.00846 | -56.99226 | 30287 ft | 458 kts | 211° |
| 2026-04-29 10:55 | 43.95145 | -57.03188 | 30291 ft | 458 kts | 207° |
| 2026-04-29 10:56 | 43.89372 | -57.06962 | 30290 ft | 458 kts | 206° |
| 2026-04-29 10:56 | 43.83588 | -57.10695 | 30289 ft | 458 kts | 206° |
| 2026-04-29 10:57 | 43.77807 | -57.14429 | 30287 ft | 458 kts | 206° |
| 2026-04-29 10:57 | 43.72068 | -57.18139 | 30277 ft | 458 kts | 206° |
| 2026-04-29 10:58 | 43.66282 | -57.21875 | 30276 ft | 459 kts | 206° |
| 2026-04-29 10:58 | 43.60499 | -57.25598 | 30270 ft | 459 kts | 207° |
| 2026-04-29 10:59 | 43.54716 | -57.29316 | 30274 ft | 459 kts | 206° |
| 2026-04-29 10:59 | 43.48928 | -57.33031 | 30270 ft | 458 kts | 206° |
| 2026-04-29 11:00 | 43.43151 | -57.36729 | 30262 ft | 457 kts | 207° |
| 2026-04-29 11:00 | 43.37393 | -57.40405 | 30264 ft | 457 kts | 207° |
| 2026-04-29 11:01 | 43.31628 | -57.44081 | 30260 ft | 456 kts | 207° |
| 2026-04-29 11:01 | 43.25884 | -57.47738 | 30248 ft | 455 kts | 206° |
| 2026-04-29 11:02 | 43.20139 | -57.51384 | 30249 ft | 455 kts | 206° |
| 2026-04-29 11:02 | 43.14386 | -57.55025 | 30239 ft | 455 kts | 206° |
| 2026-04-29 11:03 | 43.08681 | -57.58630 | 30235 ft | 454 kts | 206° |
| 2026-04-29 11:03 | 43.02942 | -57.62251 | 30232 ft | 455 kts | 206° |
| 2026-04-29 11:04 | 42.97193 | -57.65875 | 30221 ft | 454 kts | 206° |
| 2026-04-29 11:04 | 42.91464 | -57.69478 | 30227 ft | 453 kts | 206° |
| 2026-04-29 11:05 | 42.85735 | -57.73071 | 30223 ft | 454 kts | 206° |
| 2026-04-29 11:05 | 42.79995 | -57.76657 | 30217 ft | 454 kts | 206° |
| 2026-04-29 11:06 | 42.74268 | -57.80222 | 30209 ft | 453 kts | 206° |
| 2026-04-29 11:06 | 42.68534 | -57.83793 | 30209 ft | 454 kts | 206° |
| 2026-04-29 11:07 | 42.62794 | -57.87368 | 30206 ft | 453 kts | 206° |
| 2026-04-29 11:07 | 42.57065 | -57.90927 | 30202 ft | 453 kts | 206° |
| 2026-04-29 11:08 | 42.51327 | -57.94477 | 30193 ft | 453 kts | 206° |
| 2026-04-29 11:08 | 42.45600 | -57.98016 | 30185 ft | 452 kts | 206° |
| 2026-04-29 11:09 | 42.39876 | -58.01554 | 30180 ft | 452 kts | 205° |
| 2026-04-29 11:09 | 42.34163 | -58.05068 | 30171 ft | 450 kts | 206° |
| 2026-04-29 11:10 | 42.28461 | -58.08567 | 30174 ft | 450 kts | 205° |
| 2026-04-29 11:10 | 42.22759 | -58.12062 | 30163 ft | 451 kts | 205° |
| 2026-04-29 11:11 | 42.17045 | -58.15561 | 30168 ft | 451 kts | 205° |
| 2026-04-29 11:11 | 42.11360 | -58.19032 | 30163 ft | 451 kts | 205° |
| 2026-04-29 11:12 | 42.05643 | -58.22514 | 30154 ft | 451 kts | 205° |
| 2026-04-29 11:12 | 41.99921 | -58.25998 | 30150 ft | 451 kts | 205° |
| 2026-04-29 11:13 | 41.94205 | -58.29469 | 30150 ft | 451 kts | 205° |
| 2026-04-29 11:13 | 41.88487 | -58.32933 | 30146 ft | 451 kts | 205° |
| 2026-04-29 11:14 | 41.82764 | -58.36395 | 30139 ft | 451 kts | 205° |
| 2026-04-29 11:14 | 41.77041 | -58.39850 | 30128 ft | 451 kts | 205° |
| 2026-04-29 11:15 | 41.71352 | -58.43278 | 30123 ft | 451 kts | 204° |
| 2026-04-29 11:15 | 41.65631 | -58.46712 | 30116 ft | 450 kts | 205° |
| 2026-04-29 11:16 | 41.59912 | -58.50142 | 30108 ft | 450 kts | 205° |
| 2026-04-29 11:16 | 41.54174 | -58.53578 | 30104 ft | 453 kts | 204° |
| 2026-04-29 11:17 | 41.48417 | -58.57017 | 30102 ft | 453 kts | 204° |
| 2026-04-29 11:17 | 41.42670 | -58.60446 | 30092 ft | 453 kts | 204° |
| 2026-04-29 11:18 | 41.36944 | -58.63857 | 30085 ft | 454 kts | 204° |
| 2026-04-29 11:18 | 41.31180 | -58.67281 | 30081 ft | 454 kts | 204° |
| 2026-04-29 11:19 | 41.25417 | -58.70696 | 30078 ft | 454 kts | 204° |
| 2026-04-29 11:19 | 41.19638 | -58.74115 | 30070 ft | 455 kts | 204° |
| 2026-04-29 11:20 | 41.13863 | -58.77524 | 30063 ft | 454 kts | 203° |
| 2026-04-29 11:20 | 41.08096 | -58.80918 | 30062 ft | 453 kts | 203° |
| 2026-04-29 11:21 | 41.02338 | -58.84309 | 30061 ft | 454 kts | 204° |
| 2026-04-29 11:21 | 40.96560 | -58.87706 | 30052 ft | 454 kts | 203° |
| 2026-04-29 11:22 | 40.90770 | -58.91097 | 30048 ft | 457 kts | 204° |
| 2026-04-29 11:22 | 40.84944 | -58.94504 | 30039 ft | 458 kts | 204° |
| 2026-04-29 11:23 | 40.79109 | -58.97913 | 30035 ft | 458 kts | 204° |
| 2026-04-29 11:23 | 40.73265 | -59.01322 | 30026 ft | 460 kts | 204° |
| 2026-04-29 11:24 | 40.67395 | -59.04735 | 30021 ft | 461 kts | 204° |
| 2026-04-29 11:24 | 40.61524 | -59.08141 | 30020 ft | 461 kts | 204° |
| 2026-04-29 11:25 | 40.55690 | -59.11522 | 30027 ft | 462 kts | 204° |
| 2026-04-29 11:25 | 40.49805 | -59.14926 | 30025 ft | 462 kts | 204° |
| 2026-04-29 11:26 | 40.40980 | -59.20017 | 30009 ft | 461 kts | 204° |
| 2026-04-29 11:26 | 40.35095 | -59.23403 | 30009 ft | 462 kts | 204° |
| 2026-04-29 11:27 | 40.29208 | -59.26783 | 30005 ft | 462 kts | 204° |
| 2026-04-29 11:27 | 40.23332 | -59.30153 | 30000 ft | 460 kts | 204° |
| 2026-04-29 11:28 | 40.18465 | -59.32937 | 29994 ft | 460 kts | 204° |
| 2026-04-29 11:28 | 40.12562 | -59.36307 | 30002 ft | 464 kts | 204° |
| 2026-04-29 11:29 | 40.06663 | -59.39674 | 29996 ft | 463 kts | 204° |
| 2026-04-29 11:29 | 40.00756 | -59.43038 | 29989 ft | 463 kts | 204° |
| 2026-04-29 11:30 | 39.94858 | -59.46386 | 29986 ft | 462 kts | 203° |
| 2026-04-29 11:30 | 39.88974 | -59.49723 | 29981 ft | 461 kts | 203° |
| 2026-04-29 11:31 | 39.83087 | -59.53057 | 29975 ft | 461 kts | 203° |
| 2026-04-29 11:31 | 39.77204 | -59.56379 | 29972 ft | 460 kts | 202° |
| 2026-04-29 11:32 | 39.71341 | -59.59681 | 29968 ft | 459 kts | 202° |
| 2026-04-29 11:32 | 39.65464 | -59.62982 | 29960 ft | 461 kts | 203° |
| 2026-04-29 11:33 | 39.59567 | -59.66301 | 29955 ft | 463 kts | 202° |
| 2026-04-29 11:33 | 39.53651 | -59.69624 | 29949 ft | 464 kts | 202° |
| 2026-04-29 11:34 | 39.47725 | -59.72941 | 29944 ft | 464 kts | 202° |
| 2026-04-29 11:34 | 39.41805 | -59.76248 | 29941 ft | 462 kts | 202° |
| 2026-04-29 11:35 | 39.35937 | -59.79524 | 29938 ft | 463 kts | 202° |
| 2026-04-29 11:35 | 39.30030 | -59.82809 | 29935 ft | 462 kts | 200° |
| 2026-04-29 11:36 | 39.24140 | -59.86077 | 29927 ft | 460 kts | 200° |
| 2026-04-29 11:36 | 39.18271 | -59.89330 | 29914 ft | 460 kts | 201° |
| 2026-04-29 11:37 | 39.12343 | -59.92610 | 29918 ft | 467 kts | 202° |
| 2026-04-29 11:37 | 39.06353 | -59.95914 | 29904 ft | 468 kts | 202° |
| 2026-04-29 11:38 | 39.00372 | -59.99208 | 29899 ft | 467 kts | 202° |
| 2026-04-29 11:38 | 38.94387 | -60.02505 | 29900 ft | 468 kts | 202° |
| 2026-04-29 11:39 | 38.88369 | -60.05808 | 29896 ft | 473 kts | 202° |
| 2026-04-29 11:39 | 38.82302 | -60.09138 | 29895 ft | 474 kts | 202° |
| 2026-04-29 11:40 | 38.76282 | -60.12436 | 29895 ft | 474 kts | 202° |
| 2026-04-29 11:40 | 38.70215 | -60.15752 | 29887 ft | 474 kts | 202° |
| 2026-04-29 11:41 | 38.64144 | -60.19062 | 29878 ft | 476 kts | 203° |
| 2026-04-29 11:41 | 38.58023 | -60.22394 | 29871 ft | 480 kts | 203° |
| 2026-04-29 11:42 | 38.51846 | -60.25777 | 29864 ft | 484 kts | 205° |
| 2026-04-29 11:42 | 38.46095 | -60.30196 | 29862 ft | 483 kts | 214° |
| 2026-04-29 11:43 | 38.40579 | -60.35020 | 29866 ft | 485 kts | 216° |
| 2026-04-29 11:43 | 38.35033 | -60.39965 | 29840 ft | 488 kts | 215° |
| 2026-04-29 11:44 | 38.29464 | -60.44912 | 29852 ft | 488 kts | 215° |
| 2026-04-29 11:44 | 38.23885 | -60.49831 | 29843 ft | 488 kts | 216° |
| 2026-04-29 11:45 | 38.18298 | -60.54745 | 29837 ft | 489 kts | 216° |
| 2026-04-29 11:45 | 38.12699 | -60.59655 | 29831 ft | 489 kts | 215° |
| 2026-04-29 11:46 | 38.07088 | -60.64568 | 29839 ft | 492 kts | 216° |
| 2026-04-29 11:46 | 38.01424 | -60.69522 | 29820 ft | 496 kts | 217° |
| 2026-04-29 11:47 | 37.95775 | -60.74453 | 29813 ft | 496 kts | 216° |
| 2026-04-29 11:47 | 37.90094 | -60.79396 | 29805 ft | 494 kts | 217° |
| 2026-04-29 11:48 | 37.84428 | -60.84321 | 29817 ft | 494 kts | 217° |
| 2026-04-29 11:48 | 37.78759 | -60.89238 | 29802 ft | 494 kts | 216° |
| 2026-04-29 11:49 | 37.73100 | -60.94138 | 29798 ft | 494 kts | 217° |
| 2026-04-29 11:49 | 37.67429 | -60.99044 | 29786 ft | 494 kts | 217° |
| 2026-04-29 11:50 | 37.61753 | -61.03936 | 29777 ft | 494 kts | 217° |
| 2026-04-29 11:50 | 37.56066 | -61.08816 | 29780 ft | 494 kts | 217° |
| 2026-04-29 11:51 | 37.50384 | -61.13699 | 29771 ft | 494 kts | 218° |
| 2026-04-29 11:51 | 37.44702 | -61.18577 | 29768 ft | 494 kts | 218° |
| 2026-04-29 11:52 | 37.39012 | -61.23450 | 29764 ft | 497 kts | 218° |
| 2026-04-29 11:52 | 37.33275 | -61.28354 | 29761 ft | 499 kts | 218° |
| 2026-04-29 11:53 | 37.27528 | -61.33254 | 29757 ft | 499 kts | 218° |
| 2026-04-29 11:53 | 37.21778 | -61.38141 | 29759 ft | 499 kts | 219° |
| 2026-04-29 11:54 | 37.16023 | -61.43034 | 29758 ft | 500 kts | 219° |
| 2026-04-29 11:54 | 37.10263 | -61.47922 | 29759 ft | 500 kts | 219° |
| 2026-04-29 11:55 | 37.04496 | -61.52804 | 29755 ft | 500 kts | 218° |
| 2026-04-29 11:55 | 36.98761 | -61.57649 | 29754 ft | 501 kts | 218° |
| 2026-04-29 11:56 | 36.92954 | -61.62546 | 29752 ft | 500 kts | 218° |
| 2026-04-29 11:56 | 36.87179 | -61.67407 | 29753 ft | 501 kts | 219° |
| 2026-04-29 11:57 | 36.81428 | -61.72240 | 29752 ft | 501 kts | 219° |
| 2026-04-29 11:57 | 36.75637 | -61.77095 | 29751 ft | 501 kts | 219° |
| 2026-04-29 11:58 | 36.69845 | -61.81944 | 29753 ft | 501 kts | 219° |
| 2026-04-29 11:58 | 36.64065 | -61.86774 | 29758 ft | 501 kts | 219° |
| 2026-04-29 11:59 | 36.58277 | -61.91601 | 29753 ft | 500 kts | 219° |
| 2026-04-29 11:59 | 36.52518 | -61.96390 | 29756 ft | 492 kts | 219° |
| 2026-04-29 12:00 | 36.46882 | -62.01066 | 29760 ft | 485 kts | 220° |
| 2026-04-29 12:00 | 36.41279 | -62.05720 | 29763 ft | 485 kts | 220° |
| 2026-04-29 12:01 | 36.35668 | -62.10371 | 29755 ft | 484 kts | 220° |
| 2026-04-29 12:01 | 36.30107 | -62.14963 | 29759 ft | 478 kts | 220° |
| 2026-04-29 12:02 | 36.24614 | -62.19493 | 29761 ft | 477 kts | 220° |
| 2026-04-29 12:02 | 36.19091 | -62.24049 | 29757 ft | 477 kts | 219° |
| 2026-04-29 12:03 | 36.13578 | -62.28584 | 29756 ft | 474 kts | 219° |
| 2026-04-29 12:03 | 36.08086 | -62.33087 | 29760 ft | 473 kts | 219° |
| 2026-04-29 12:04 | 36.02598 | -62.37582 | 29759 ft | 473 kts | 219° |
| 2026-04-29 12:04 | 35.97109 | -62.42074 | 29762 ft | 472 kts | 219° |
| 2026-04-29 12:05 | 35.91638 | -62.46542 | 29767 ft | 471 kts | 219° |
| 2026-04-29 12:05 | 35.86178 | -62.50995 | 29765 ft | 471 kts | 219° |
| 2026-04-29 12:06 | 35.80704 | -62.55450 | 29761 ft | 471 kts | 218° |
| 2026-04-29 12:06 | 35.75265 | -62.59869 | 29769 ft | 467 kts | 218° |
| 2026-04-29 12:07 | 35.69848 | -62.64263 | 29771 ft | 466 kts | 218° |
| 2026-04-29 12:07 | 35.64431 | -62.68652 | 29774 ft | 466 kts | 218° |
| 2026-04-29 12:08 | 35.59020 | -62.73027 | 29774 ft | 465 kts | 218° |
| 2026-04-29 12:08 | 35.53626 | -62.77380 | 29774 ft | 464 kts | 218° |
| 2026-04-29 12:09 | 35.48236 | -62.81725 | 29777 ft | 464 kts | 218° |
| 2026-04-29 12:09 | 35.42875 | -62.86041 | 29775 ft | 464 kts | 218° |
| 2026-04-29 12:10 | 35.37468 | -62.90385 | 29781 ft | 465 kts | 217° |
| 2026-04-29 12:10 | 35.32061 | -62.94720 | 29783 ft | 465 kts | 217° |
| 2026-04-29 12:11 | 35.26639 | -62.99062 | 29785 ft | 468 kts | 217° |
| 2026-04-29 12:11 | 35.21171 | -63.03435 | 29789 ft | 470 kts | 217° |
| 2026-04-29 12:12 | 35.15698 | -63.07802 | 29785 ft | 470 kts | 217° |
| 2026-04-29 12:12 | 35.10228 | -63.12159 | 29789 ft | 470 kts | 217° |
| 2026-04-29 12:13 | 35.05020 | -63.16913 | 29806 ft | 466 kts | 224° |
| 2026-04-29 12:13 | 35.00112 | -63.22090 | 29806 ft | 466 kts | 225° |
| 2026-04-29 12:14 | 34.95246 | -63.27310 | 29805 ft | 466 kts | 225° |
| 2026-04-29 12:14 | 34.90386 | -63.32529 | 29787 ft | 466 kts | 225° |
| 2026-04-29 12:15 | 34.85560 | -63.37707 | 29787 ft | 465 kts | 225° |
| 2026-04-29 12:15 | 34.80707 | -63.42906 | 29806 ft | 464 kts | 225° |
| 2026-04-29 12:16 | 34.75857 | -63.48095 | 29814 ft | 465 kts | 225° |
| 2026-04-29 12:16 | 34.70985 | -63.53298 | 29821 ft | 466 kts | 225° |
| 2026-04-29 12:17 | 34.66938 | -63.57614 | 29819 ft | 466 kts | 225° |
| 2026-04-29 12:17 | 34.62071 | -63.62796 | 29822 ft | 465 kts | 225° |
| 2026-04-29 12:18 | 34.57205 | -63.67969 | 29823 ft | 465 kts | 225° |
| 2026-04-29 12:18 | 34.52325 | -63.73150 | 29835 ft | 466 kts | 225° |
| 2026-04-29 12:19 | 34.47437 | -63.78328 | 29832 ft | 468 kts | 225° |
| 2026-04-29 12:19 | 34.42529 | -63.83522 | 29832 ft | 469 kts | 225° |
| 2026-04-29 12:20 | 34.37615 | -63.88712 | 29832 ft | 469 kts | 225° |
| 2026-04-29 12:20 | 34.32698 | -63.93897 | 29833 ft | 469 kts | 225° |
| 2026-04-29 12:21 | 34.27810 | -63.99041 | 29841 ft | 468 kts | 225° |
| 2026-04-29 12:21 | 34.22892 | -64.04213 | 29847 ft | 468 kts | 225° |
| 2026-04-29 12:22 | 34.17964 | -64.09385 | 29847 ft | 470 kts | 225° |
| 2026-04-29 12:22 | 34.13024 | -64.14562 | 29845 ft | 471 kts | 225° |
| 2026-04-29 12:23 | 34.08074 | -64.19740 | 29856 ft | 470 kts | 225° |
| 2026-04-29 12:23 | 34.03131 | -64.24902 | 29862 ft | 470 kts | 225° |
| 2026-04-29 12:24 | 33.98182 | -64.30063 | 29865 ft | 470 kts | 225° |
| 2026-04-29 12:24 | 33.93230 | -64.35217 | 29857 ft | 470 kts | 226° |
| 2026-04-29 12:25 | 33.88285 | -64.40355 | 29868 ft | 470 kts | 226° |
| 2026-04-29 12:26 | 33.80739 | -64.47933 | 29867 ft | 476 kts | 220° |
| 2026-04-29 12:26 | 33.74716 | -64.51461 | 29880 ft | 491 kts | 202° |
| 2026-04-29 12:26 | 33.71367 | -64.52314 | 29495 ft | 495 kts | 193° |
| 2026-04-29 12:27 | 33.67888 | -64.52425 | 28593 ft | 503 kts | 183° |
| 2026-04-29 12:27 | 33.64449 | -64.52181 | 27864 ft | 500 kts | 181° |
| 2026-04-29 12:27 | 33.60999 | -64.51898 | 27176 ft | 495 kts | 181° |
| 2026-04-29 12:27 | 33.57581 | -64.51629 | 26541 ft | 489 kts | 181° |
| 2026-04-29 12:28 | 33.54202 | -64.51376 | 25864 ft | 485 kts | 181° |
| 2026-04-29 12:28 | 33.50860 | -64.51133 | 25251 ft | 479 kts | 181° |
| 2026-04-29 12:28 | 33.47544 | -64.50897 | 24596 ft | 475 kts | 181° |
| 2026-04-29 12:28 | 33.44259 | -64.50665 | 24024 ft | 470 kts | 181° |
| 2026-04-29 12:29 | 33.41006 | -64.50438 | 23399 ft | 466 kts | 181° |
| 2026-04-29 12:29 | 33.37778 | -64.50212 | 22662 ft | 463 kts | 181° |
| 2026-04-29 12:29 | 33.34579 | -64.49989 | 21976 ft | 459 kts | 181° |
| 2026-04-29 12:29 | 33.31403 | -64.49769 | 21324 ft | 455 kts | 181° |
| 2026-04-29 12:30 | 33.28253 | -64.49550 | 20638 ft | 452 kts | 181° |
| 2026-04-29 12:30 | 33.25126 | -64.49333 | 20025 ft | 448 kts | 181° |
| 2026-04-29 12:30 | 33.22018 | -64.49118 | 19365 ft | 447 kts | 181° |
| 2026-04-29 12:30 | 33.18925 | -64.48904 | 18751 ft | 444 kts | 181° |
| 2026-04-29 12:31 | 33.15845 | -64.48692 | 18184 ft | 441 kts | 181° |
| 2026-04-29 12:31 | 33.12795 | -64.48481 | 17632 ft | 436 kts | 181° |
| 2026-04-29 12:31 | 33.09790 | -64.48272 | 17032 ft | 431 kts | 181° |
| 2026-04-29 12:31 | 33.06811 | -64.48067 | 16507 ft | 426 kts | 181° |
| 2026-04-29 12:32 | 33.03861 | -64.47863 | 15921 ft | 422 kts | 181° |
| 2026-04-29 12:32 | 33.00952 | -64.47663 | 15418 ft | 416 kts | 181° |
| 2026-04-29 12:32 | 32.98070 | -64.47464 | 14853 ft | 412 kts | 181° |
| 2026-04-29 12:32 | 32.95223 | -64.47269 | 14344 ft | 407 kts | 181° |
| 2026-04-29 12:33 | 32.92406 | -64.47075 | 13817 ft | 403 kts | 181° |
| 2026-04-29 12:33 | 32.89661 | -64.46883 | 13734 ft | 386 kts | 181° |
| 2026-04-29 12:33 | 32.87050 | -64.46699 | 13722 ft | 368 kts | 181° |
| 2026-04-29 12:33 | 32.84555 | -64.46524 | 13696 ft | 351 kts | 182° |
| 2026-04-29 12:34 | 32.82183 | -64.46361 | 13538 ft | 341 kts | 182° |
| 2026-04-29 12:34 | 32.79813 | -64.46200 | 13274 ft | 333 kts | 182° |
| 2026-04-29 12:34 | 32.77532 | -64.46048 | 12857 ft | 333 kts | 182° |
| 2026-04-29 12:34 | 32.75227 | -64.45893 | 12447 ft | 331 kts | 182° |
| 2026-04-29 12:35 | 32.72934 | -64.45738 | 12079 ft | 329 kts | 182° |
| 2026-04-29 12:35 | 32.70656 | -64.45583 | 11699 ft | 327 kts | 182° |
| 2026-04-29 12:35 | 32.68389 | -64.45429 | 11321 ft | 326 kts | 182° |
| 2026-04-29 12:35 | 32.66128 | -64.45275 | 10931 ft | 325 kts | 182° |
| 2026-04-29 12:36 | 32.63881 | -64.45122 | 10563 ft | 323 kts | 182° |
| 2026-04-29 12:36 | 32.61647 | -64.44969 | 10211 ft | 321 kts | 182° |
| 2026-04-29 12:36 | 32.59422 | -64.44817 | 9840 ft | 320 kts | 182° |
| 2026-04-29 12:36 | 32.57204 | -64.44666 | 9474 ft | 318 kts | 182° |
| 2026-04-29 12:37 | 32.55005 | -64.44516 | 9089 ft | 316 kts | 182° |
| 2026-04-29 12:37 | 32.52815 | -64.44367 | 8740 ft | 313 kts | 182° |
| 2026-04-29 12:37 | 32.50687 | -64.44217 | 8705 ft | 299 kts | 183° |
| 2026-04-29 12:37 | 32.48657 | -64.44074 | 8675 ft | 285 kts | 183° |
| 2026-04-29 12:38 | 32.46721 | -64.43938 | 8649 ft | 273 kts | 184° |
| 2026-04-29 12:38 | 32.44833 | -64.43812 | 8364 ft | 272 kts | 184° |
| 2026-04-29 12:38 | 32.42945 | -64.43739 | 7943 ft | 269 kts | 191° |
| 2026-04-29 12:38 | 32.41167 | -64.44234 | 7290 ft | 260 kts | 207° |
| 2026-04-29 12:39 | 32.39469 | -64.45016 | 6338 ft | 267 kts | 210° |
| 2026-04-29 12:39 | 32.37718 | -64.45877 | 5209 ft | 277 kts | 210° |
| 2026-04-29 12:39 | 32.35955 | -64.46732 | 4337 ft | 275 kts | 208° |
| 2026-04-29 12:39 | 32.34277 | -64.47664 | 3757 ft | 254 kts | 223° |
| 2026-04-29 12:40 | 32.33308 | -64.49205 | 3240 ft | 222 kts | 259° |
| 2026-04-29 12:40 | 32.33310 | -64.50926 | 2745 ft | 205 kts | 284° |
| 2026-04-29 12:40 | 32.33627 | -64.52554 | 2242 ft | 202 kts | 286° |
| 2026-04-29 12:40 | 32.33954 | -64.54164 | 1749 ft | 200 kts | 285° |
| 2026-04-29 12:41 | 32.34263 | -64.55757 | 1255 ft | 198 kts | 284° |
| 2026-04-29 12:41 | 32.34554 | -64.57314 | 1021 ft | 189 kts | 284° |
| 2026-04-29 12:41 | 32.34814 | -64.58753 | 977 ft | 167 kts | 284° |
| 2026-04-29 12:41 | 32.35041 | -64.60032 | 990 ft | 157 kts | 284° |
| 2026-04-29 12:42 | 32.35281 | -64.61289 | 891 ft | 155 kts | 283° |
| 2026-04-29 12:42 | 32.35469 | -64.62500 | 677 ft | 148 kts | 278° |
| 2026-04-29 12:42 | 32.35565 | -64.63662 | 481 ft | 127 kts | 282° |
| 2026-04-29 12:42 | 32.35764 | -64.64612 | 404 ft | 111 kts | 287° |
| 2026-04-29 12:43 | 32.35947 | -64.65457 | 251 ft | 113 kts | 282° |
| 2026-04-29 12:43 | 32.36169 | -64.66526 | 68 ft | 139 kts | 283° |
| 2026-04-29 12:43 | 32.36343 | -64.67544 | 27 ft | 114 kts | 284° |
| 2026-04-29 12:43 | 32.36485 | -64.68235 | 29 ft | 69 kts | 281° |
| 2026-04-29 12:44 | 32.36576 | -64.68672 | 29 ft | 40 kts | 315° |
| 2026-04-29 12:44 | 32.36769 | -64.68741 | 34 ft | 19 kts | 15° |
| 2026-04-29 12:44 | 32.36843 | -64.68682 | 34 ft | 8 kts | 39° |
| 2026-04-29 12:44 | 32.36872 | -64.68654 | 34 ft | 2 kts | 39° |
| 2026-04-29 12:45 | 32.36875 | -64.68652 | 34 ft | 0 kts | 39° |